sensor_id;sensor_type;location;lat;lon;timestamp;P1;durP1;ratioP1;P2;durP2;ratioP2
1074;SDS011;526;51.392;12.448;2023-05-07T00:02:21;5.47;;;2.80;;
1074;SDS011;526;51.392;12.448;2023-05-07T00:04:47;7.67;;;3.53;;
1074;SDS011;526;51.392;12.448;2023-05-07T00:07:13;2.00;;;1.90;;
1074;SDS011;526;51.392;12.448;2023-05-07T00:09:39;9.03;;;4.77;;
1074;SDS011;526;51.392;12.448;2023-05-07T00:12:05;3.27;;;3.00;;
1074;SDS011;526;51.392;12.448;2023-05-07T00:14:31;7.53;;;2.70;;
1074;SDS011;526;51.392;12.448;2023-05-07T00:16:56;2.40;;;2.20;;
1074;SDS011;526;51.392;12.448;2023-05-07T00:19:21;3.10;;;2.80;;
1074;SDS011;526;51.392;12.448;2023-05-07T00:21:47;8.47;;;4.23;;
1074;SDS011;526;51.392;12.448;2023-05-07T00:24:13;3.83;;;3.63;;
1074;SDS011;526;51.392;12.448;2023-05-07T00:26:38;4.47;;;4.20;;
1074;SDS011;526;51.392;12.448;2023-05-07T00:29:03;6.00;;;2.17;;
1074;SDS011;526;51.392;12.448;2023-05-07T00:31:29;3.10;;;2.80;;
1074;SDS011;526;51.392;12.448;2023-05-07T00:33:54;5.47;;;4.20;;
1074;SDS011;526;51.392;12.448;2023-05-07T00:36:20;3.63;;;2.77;;
1074;SDS011;526;51.392;12.448;2023-05-07T00:38:45;4.23;;;3.97;;
1074;SDS011;526;51.392;12.448;2023-05-07T00:41:11;6.70;;;4.33;;
1074;SDS011;526;51.392;12.448;2023-05-07T00:43:36;2.40;;;2.20;;
1074;SDS011;526;51.392;12.448;2023-05-07T00:46:02;10.67;;;5.70;;
1074;SDS011;526;51.392;12.448;2023-05-07T00:48:28;2.90;;;2.53;;
1074;SDS011;526;51.392;12.448;2023-05-07T00:50:53;8.90;;;4.97;;
1074;SDS011;526;51.392;12.448;2023-05-07T00:53:19;3.00;;;2.80;;
1074;SDS011;526;51.392;12.448;2023-05-07T00:55:45;5.13;;;3.43;;
1074;SDS011;526;51.392;12.448;2023-05-07T00:58:11;6.30;;;5.97;;
1074;SDS011;526;51.392;12.448;2023-05-07T01:00:37;3.83;;;2.90;;
1074;SDS011;526;51.392;12.448;2023-05-07T01:03:02;6.17;;;2.83;;
1074;SDS011;526;51.392;12.448;2023-05-07T01:05:28;4.53;;;2.67;;
1074;SDS011;526;51.392;12.448;2023-05-07T01:07:55;3.67;;;3.40;;
1074;SDS011;526;51.392;12.448;2023-05-07T01:10:22;4.83;;;4.03;;
1074;SDS011;526;51.392;12.448;2023-05-07T01:12:48;6.30;;;4.03;;
1074;SDS011;526;51.392;12.448;2023-05-07T01:15:15;2.60;;;2.43;;
1074;SDS011;526;51.392;12.448;2023-05-07T01:17:41;4.47;;;3.47;;
1074;SDS011;526;51.392;12.448;2023-05-07T01:20:08;5.50;;;4.37;;
1074;SDS011;526;51.392;12.448;2023-05-07T01:22:35;5.37;;;3.87;;
1074;SDS011;526;51.392;12.448;2023-05-07T01:25:03;3.80;;;3.20;;
1074;SDS011;526;51.392;12.448;2023-05-07T01:27:30;5.23;;;4.53;;
1074;SDS011;526;51.392;12.448;2023-05-07T01:29:55;5.43;;;4.90;;
1074;SDS011;526;51.392;12.448;2023-05-07T01:32:21;3.83;;;3.37;;
1074;SDS011;526;51.392;12.448;2023-05-07T01:34:52;6.63;;;5.20;;
1074;SDS011;526;51.392;12.448;2023-05-07T01:37:18;10.97;;;4.97;;
1074;SDS011;526;51.392;12.448;2023-05-07T01:39:45;13.37;;;5.87;;
1074;SDS011;526;51.392;12.448;2023-05-07T01:42:12;9.27;;;3.33;;
1074;SDS011;526;51.392;12.448;2023-05-07T01:44:37;5.83;;;5.10;;
1074;SDS011;526;51.392;12.448;2023-05-07T01:47:03;8.83;;;3.80;;
1074;SDS011;526;51.392;12.448;2023-05-07T01:49:29;5.03;;;4.73;;
1074;SDS011;526;51.392;12.448;2023-05-07T01:51:55;5.77;;;3.77;;
1074;SDS011;526;51.392;12.448;2023-05-07T01:54:24;5.83;;;4.50;;
1074;SDS011;526;51.392;12.448;2023-05-07T01:56:52;8.10;;;5.97;;
1074;SDS011;526;51.392;12.448;2023-05-07T01:59:18;6.40;;;4.23;;
1074;SDS011;526;51.392;12.448;2023-05-07T02:01:43;6.03;;;4.17;;
1074;SDS011;526;51.392;12.448;2023-05-07T02:04:09;9.80;;;5.23;;
1074;SDS011;526;51.392;12.448;2023-05-07T02:06:34;12.23;;;6.23;;
1074;SDS011;526;51.392;12.448;2023-05-07T02:09:00;7.13;;;4.80;;
1074;SDS011;526;51.392;12.448;2023-05-07T02:11:26;6.10;;;4.20;;
1074;SDS011;526;51.392;12.448;2023-05-07T02:13:52;9.33;;;5.50;;
1074;SDS011;526;51.392;12.448;2023-05-07T02:16:18;7.80;;;4.87;;
1074;SDS011;526;51.392;12.448;2023-05-07T02:18:44;10.03;;;5.30;;
1074;SDS011;526;51.392;12.448;2023-05-07T02:21:10;15.13;;;4.37;;
1074;SDS011;526;51.392;12.448;2023-05-07T02:23:35;8.10;;;5.20;;
1074;SDS011;526;51.392;12.448;2023-05-07T02:26:01;11.13;;;5.70;;
1074;SDS011;526;51.392;12.448;2023-05-07T02:28:26;7.47;;;3.80;;
1074;SDS011;526;51.392;12.448;2023-05-07T02:30:52;5.03;;;4.40;;
1074;SDS011;526;51.392;12.448;2023-05-07T02:33:17;11.00;;;5.00;;
1074;SDS011;526;51.392;12.448;2023-05-07T02:35:43;20.77;;;6.93;;
1074;SDS011;526;51.392;12.448;2023-05-07T02:38:09;7.77;;;4.70;;
1074;SDS011;526;51.392;12.448;2023-05-07T02:40:35;13.87;;;5.77;;
1074;SDS011;526;51.392;12.448;2023-05-07T02:43:04;4.37;;;4.10;;
1074;SDS011;526;51.392;12.448;2023-05-07T02:45:30;5.20;;;4.90;;
1074;SDS011;526;51.392;12.448;2023-05-07T02:47:56;8.50;;;3.90;;
1074;SDS011;526;51.392;12.448;2023-05-07T02:50:22;6.80;;;3.57;;
1074;SDS011;526;51.392;12.448;2023-05-07T02:52:47;7.30;;;5.07;;
1074;SDS011;526;51.392;12.448;2023-05-07T02:55:13;6.17;;;4.10;;
1074;SDS011;526;51.392;12.448;2023-05-07T02:57:39;8.93;;;5.73;;
1074;SDS011;526;51.392;12.448;2023-05-07T03:00:11;3.70;;;3.23;;
1074;SDS011;526;51.392;12.448;2023-05-07T03:02:44;8.53;;;3.80;;
1074;SDS011;526;51.392;12.448;2023-05-07T03:05:10;5.60;;;4.23;;
1074;SDS011;526;51.392;12.448;2023-05-07T03:07:37;5.90;;;3.63;;
1074;SDS011;526;51.392;12.448;2023-05-07T03:10:03;15.17;;;5.23;;
1074;SDS011;526;51.392;12.448;2023-05-07T03:12:29;6.43;;;4.37;;
1074;SDS011;526;51.392;12.448;2023-05-07T03:14:55;5.97;;;4.27;;
1074;SDS011;526;51.392;12.448;2023-05-07T03:17:20;4.73;;;3.50;;
1074;SDS011;526;51.392;12.448;2023-05-07T03:19:46;6.07;;;5.77;;
1074;SDS011;526;51.392;12.448;2023-05-07T03:22:11;8.50;;;5.10;;
1074;SDS011;526;51.392;12.448;2023-05-07T03:24:37;8.27;;;4.07;;
1074;SDS011;526;51.392;12.448;2023-05-07T03:27:02;7.00;;;2.97;;
1074;SDS011;526;51.392;12.448;2023-05-07T03:29:28;10.50;;;5.40;;
1074;SDS011;526;51.392;12.448;2023-05-07T03:31:53;6.80;;;4.90;;
1074;SDS011;526;51.392;12.448;2023-05-07T03:34:19;9.23;;;5.33;;
1074;SDS011;526;51.392;12.448;2023-05-07T03:36:47;4.23;;;3.97;;
1074;SDS011;526;51.392;12.448;2023-05-07T03:39:13;10.10;;;4.93;;
1074;SDS011;526;51.392;12.448;2023-05-07T03:41:39;5.20;;;4.13;;
1074;SDS011;526;51.392;12.448;2023-05-07T03:44:05;14.40;;;6.93;;
1074;SDS011;526;51.392;12.448;2023-05-07T03:46:30;7.43;;;4.77;;
1074;SDS011;526;51.392;12.448;2023-05-07T03:48:57;6.90;;;5.60;;
1074;SDS011;526;51.392;12.448;2023-05-07T03:51:23;4.90;;;4.60;;
1074;SDS011;526;51.392;12.448;2023-05-07T03:53:49;17.73;;;5.40;;
1074;SDS011;526;51.392;12.448;2023-05-07T03:56:14;8.27;;;4.80;;
1074;SDS011;526;51.392;12.448;2023-05-07T03:58:40;6.07;;;5.77;;
1074;SDS011;526;51.392;12.448;2023-05-07T04:01:05;4.90;;;4.43;;
1074;SDS011;526;51.392;12.448;2023-05-07T04:03:32;7.87;;;4.53;;
1074;SDS011;526;51.392;12.448;2023-05-07T04:05:57;7.40;;;4.90;;
1074;SDS011;526;51.392;12.448;2023-05-07T04:08:23;4.77;;;4.47;;
1074;SDS011;526;51.392;12.448;2023-05-07T04:10:53;6.10;;;4.53;;
1074;SDS011;526;51.392;12.448;2023-05-07T04:13:20;8.80;;;5.23;;
1074;SDS011;526;51.392;12.448;2023-05-07T04:15:45;8.27;;;5.07;;
1074;SDS011;526;51.392;12.448;2023-05-07T04:18:11;4.50;;;3.67;;
1074;SDS011;526;51.392;12.448;2023-05-07T04:20:36;8.93;;;5.33;;
1074;SDS011;526;51.392;12.448;2023-05-07T04:23:02;11.17;;;4.97;;
1074;SDS011;526;51.392;12.448;2023-05-07T04:25:28;10.73;;;4.17;;
1074;SDS011;526;51.392;12.448;2023-05-07T04:27:53;7.33;;;4.80;;
1074;SDS011;526;51.392;12.448;2023-05-07T04:30:19;6.67;;;4.20;;
1074;SDS011;526;51.392;12.448;2023-05-07T04:32:44;5.23;;;3.73;;
1074;SDS011;526;51.392;12.448;2023-05-07T04:35:10;6.97;;;5.20;;
1074;SDS011;526;51.392;12.448;2023-05-07T04:37:35;3.73;;;3.37;;
1074;SDS011;526;51.392;12.448;2023-05-07T04:40:01;8.07;;;4.43;;
1074;SDS011;526;51.392;12.448;2023-05-07T04:42:27;5.80;;;3.27;;
1074;SDS011;526;51.392;12.448;2023-05-07T04:44:53;7.17;;;5.67;;
1074;SDS011;526;51.392;12.448;2023-05-07T04:47:19;5.43;;;4.13;;
1074;SDS011;526;51.392;12.448;2023-05-07T04:49:45;6.83;;;4.50;;
1074;SDS011;526;51.392;12.448;2023-05-07T04:52:11;10.57;;;5.03;;
1074;SDS011;526;51.392;12.448;2023-05-07T04:54:36;7.10;;;3.50;;
1074;SDS011;526;51.392;12.448;2023-05-07T04:57:03;6.17;;;5.40;;
1074;SDS011;526;51.392;12.448;2023-05-07T04:59:29;7.00;;;4.63;;
1074;SDS011;526;51.392;12.448;2023-05-07T05:01:55;8.00;;;5.17;;
1074;SDS011;526;51.392;12.448;2023-05-07T05:04:20;5.93;;;3.90;;
1074;SDS011;526;51.392;12.448;2023-05-07T05:06:46;10.87;;;3.63;;
1074;SDS011;526;51.392;12.448;2023-05-07T05:09:11;3.50;;;3.20;;
1074;SDS011;526;51.392;12.448;2023-05-07T05:11:37;6.53;;;3.10;;
1074;SDS011;526;51.392;12.448;2023-05-07T05:14:03;8.60;;;5.27;;
1074;SDS011;526;51.392;12.448;2023-05-07T05:16:28;5.30;;;4.87;;
1074;SDS011;526;51.392;12.448;2023-05-07T05:18:54;4.93;;;4.00;;
1074;SDS011;526;51.392;12.448;2023-05-07T05:21:20;11.93;;;5.83;;
1074;SDS011;526;51.392;12.448;2023-05-07T05:23:46;12.43;;;5.90;;
1074;SDS011;526;51.392;12.448;2023-05-07T05:26:12;6.70;;;3.37;;
1074;SDS011;526;51.392;12.448;2023-05-07T05:28:37;2.80;;;2.60;;
1074;SDS011;526;51.392;12.448;2023-05-07T05:31:03;6.33;;;4.43;;
1074;SDS011;526;51.392;12.448;2023-05-07T05:33:29;7.60;;;4.40;;
1074;SDS011;526;51.392;12.448;2023-05-07T05:35:55;3.47;;;3.13;;
1074;SDS011;526;51.392;12.448;2023-05-07T05:38:20;5.37;;;4.03;;
1074;SDS011;526;51.392;12.448;2023-05-07T05:40:46;6.80;;;4.80;;
1074;SDS011;526;51.392;12.448;2023-05-07T05:43:12;7.30;;;4.77;;
1074;SDS011;526;51.392;12.448;2023-05-07T05:45:38;8.67;;;3.23;;
1074;SDS011;526;51.392;12.448;2023-05-07T05:48:04;5.43;;;2.80;;
1074;SDS011;526;51.392;12.448;2023-05-07T05:50:30;7.67;;;4.73;;
1074;SDS011;526;51.392;12.448;2023-05-07T05:52:56;4.33;;;3.90;;
1074;SDS011;526;51.392;12.448;2023-05-07T05:55:22;4.10;;;3.87;;
1074;SDS011;526;51.392;12.448;2023-05-07T05:57:48;3.77;;;3.17;;
1074;SDS011;526;51.392;12.448;2023-05-07T06:00:15;7.50;;;4.77;;
1074;SDS011;526;51.392;12.448;2023-05-07T06:02:41;8.10;;;3.83;;
1074;SDS011;526;51.392;12.448;2023-05-07T06:05:07;5.70;;;3.50;;
1074;SDS011;526;51.392;12.448;2023-05-07T06:07:33;4.90;;;4.30;;
1074;SDS011;526;51.392;12.448;2023-05-07T06:09:59;6.00;;;4.60;;
1074;SDS011;526;51.392;12.448;2023-05-07T06:12:25;6.30;;;3.03;;
1074;SDS011;526;51.392;12.448;2023-05-07T06:14:51;2.80;;;2.60;;
1074;SDS011;526;51.392;12.448;2023-05-07T06:17:17;5.63;;;4.20;;
1074;SDS011;526;51.392;12.448;2023-05-07T06:19:42;5.07;;;3.63;;
1074;SDS011;526;51.392;12.448;2023-05-07T06:22:08;6.60;;;5.13;;
1074;SDS011;526;51.392;12.448;2023-05-07T06:24:33;4.77;;;4.50;;
1074;SDS011;526;51.392;12.448;2023-05-07T06:26:59;5.20;;;4.23;;
1074;SDS011;526;51.392;12.448;2023-05-07T06:29:24;2.60;;;2.30;;
1074;SDS011;526;51.392;12.448;2023-05-07T06:31:51;6.67;;;3.60;;
1074;SDS011;526;51.392;12.448;2023-05-07T06:34:17;6.90;;;2.60;;
1074;SDS011;526;51.392;12.448;2023-05-07T06:36:43;8.27;;;3.63;;
1074;SDS011;526;51.392;12.448;2023-05-07T06:39:08;11.23;;;4.60;;
1074;SDS011;526;51.392;12.448;2023-05-07T06:41:34;3.40;;;2.77;;
1074;SDS011;526;51.392;12.448;2023-05-07T06:44:00;4.80;;;4.50;;
1074;SDS011;526;51.392;12.448;2023-05-07T06:46:29;2.77;;;2.60;;
1074;SDS011;526;51.392;12.448;2023-05-07T06:48:55;4.50;;;3.60;;
1074;SDS011;526;51.392;12.448;2023-05-07T06:51:21;4.23;;;3.13;;
1074;SDS011;526;51.392;12.448;2023-05-07T06:53:47;5.77;;;3.20;;
1074;SDS011;526;51.392;12.448;2023-05-07T06:56:12;6.50;;;4.43;;
1074;SDS011;526;51.392;12.448;2023-05-07T06:58:38;4.53;;;3.20;;
1074;SDS011;526;51.392;12.448;2023-05-07T07:01:03;7.60;;;4.20;;
1074;SDS011;526;51.392;12.448;2023-05-07T07:03:29;4.73;;;3.47;;
1074;SDS011;526;51.392;12.448;2023-05-07T07:05:55;4.73;;;4.43;;
1074;SDS011;526;51.392;12.448;2023-05-07T07:08:21;3.80;;;2.50;;
1074;SDS011;526;51.392;12.448;2023-05-07T07:10:47;1.77;;;1.67;;
1074;SDS011;526;51.392;12.448;2023-05-07T07:13:13;5.33;;;1.93;;
1074;SDS011;526;51.392;12.448;2023-05-07T07:15:38;2.03;;;1.63;;
1074;SDS011;526;51.392;12.448;2023-05-07T07:18:04;2.37;;;2.10;;
1074;SDS011;526;51.392;12.448;2023-05-07T07:20:30;9.07;;;4.60;;
1074;SDS011;526;51.392;12.448;2023-05-07T07:22:56;5.93;;;3.27;;
1074;SDS011;526;51.392;12.448;2023-05-07T07:25:21;4.80;;;3.07;;
1074;SDS011;526;51.392;12.448;2023-05-07T07:27:47;2.93;;;2.07;;
1074;SDS011;526;51.392;12.448;2023-05-07T07:30:12;2.83;;;2.53;;
1074;SDS011;526;51.392;12.448;2023-05-07T07:32:38;6.20;;;2.70;;
1074;SDS011;526;51.392;12.448;2023-05-07T07:35:03;2.73;;;2.20;;
1074;SDS011;526;51.392;12.448;2023-05-07T07:37:29;9.13;;;2.80;;
1074;SDS011;526;51.392;12.448;2023-05-07T07:39:55;4.83;;;3.83;;
1074;SDS011;526;51.392;12.448;2023-05-07T07:42:20;3.90;;;3.70;;
1074;SDS011;526;51.392;12.448;2023-05-07T07:44:46;2.00;;;1.90;;
1074;SDS011;526;51.392;12.448;2023-05-07T07:47:11;3.03;;;2.30;;
1074;SDS011;526;51.392;12.448;2023-05-07T07:49:37;5.80;;;3.43;;
1074;SDS011;526;51.392;12.448;2023-05-07T07:52:02;4.43;;;2.97;;
1074;SDS011;526;51.392;12.448;2023-05-07T07:54:28;2.90;;;2.70;;
1074;SDS011;526;51.392;12.448;2023-05-07T07:56:54;2.30;;;2.10;;
1074;SDS011;526;51.392;12.448;2023-05-07T07:59:19;2.70;;;2.37;;
1074;SDS011;526;51.392;12.448;2023-05-07T08:01:45;4.63;;;2.87;;
1074;SDS011;526;51.392;12.448;2023-05-07T08:04:13;2.23;;;2.07;;
1074;SDS011;526;51.392;12.448;2023-05-07T08:06:38;4.17;;;2.40;;
1074;SDS011;526;51.392;12.448;2023-05-07T08:09:04;4.40;;;2.97;;
1074;SDS011;526;51.392;12.448;2023-05-07T08:11:29;2.73;;;2.53;;
1074;SDS011;526;51.392;12.448;2023-05-07T08:13:55;3.73;;;2.47;;
1074;SDS011;526;51.392;12.448;2023-05-07T08:16:21;7.10;;;2.60;;
1074;SDS011;526;51.392;12.448;2023-05-07T08:18:46;5.63;;;2.67;;
1074;SDS011;526;51.392;12.448;2023-05-07T08:21:12;5.20;;;3.47;;
1074;SDS011;526;51.392;12.448;2023-05-07T08:23:37;2.30;;;2.03;;
1074;SDS011;526;51.392;12.448;2023-05-07T08:26:03;3.43;;;2.03;;
1074;SDS011;526;51.392;12.448;2023-05-07T08:28:29;6.13;;;3.30;;
1074;SDS011;526;51.392;12.448;2023-05-07T08:30:54;2.83;;;2.40;;
1074;SDS011;526;51.392;12.448;2023-05-07T08:33:21;1.73;;;1.70;;
1074;SDS011;526;51.392;12.448;2023-05-07T08:35:47;3.20;;;3.00;;
1074;SDS011;526;51.392;12.448;2023-05-07T08:38:12;3.97;;;2.63;;
1074;SDS011;526;51.392;12.448;2023-05-07T08:40:38;3.53;;;3.33;;
1074;SDS011;526;51.392;12.448;2023-05-07T08:43:05;2.73;;;2.53;;
1074;SDS011;526;51.392;12.448;2023-05-07T08:45:32;5.30;;;2.43;;
1074;SDS011;526;51.392;12.448;2023-05-07T08:47:59;6.53;;;3.10;;
1074;SDS011;526;51.392;12.448;2023-05-07T08:50:28;2.10;;;1.93;;
1074;SDS011;526;51.392;12.448;2023-05-07T08:52:53;7.00;;;2.90;;
1074;SDS011;526;51.392;12.448;2023-05-07T08:55:20;2.53;;;2.37;;
1074;SDS011;526;51.392;12.448;2023-05-07T08:57:46;6.60;;;3.57;;
1074;SDS011;526;51.392;12.448;2023-05-07T09:00:13;1.70;;;1.60;;
1074;SDS011;526;51.392;12.448;2023-05-07T09:02:38;3.17;;;3.03;;
1074;SDS011;526;51.392;12.448;2023-05-07T09:05:04;4.30;;;2.53;;
1074;SDS011;526;51.392;12.448;2023-05-07T09:07:30;3.10;;;2.90;;
1074;SDS011;526;51.392;12.448;2023-05-07T09:09:56;8.80;;;3.83;;
1074;SDS011;526;51.392;12.448;2023-05-07T09:12:22;2.50;;;2.23;;
1074;SDS011;526;51.392;12.448;2023-05-07T09:14:48;12.90;;;3.97;;
1074;SDS011;526;51.392;12.448;2023-05-07T09:17:17;3.30;;;2.57;;
1074;SDS011;526;51.392;12.448;2023-05-07T09:19:44;9.03;;;2.80;;
1074;SDS011;526;51.392;12.448;2023-05-07T09:22:12;2.80;;;2.20;;
1074;SDS011;526;51.392;12.448;2023-05-07T09:24:38;3.40;;;3.20;;
1074;SDS011;526;51.392;12.448;2023-05-07T09:27:05;5.57;;;2.60;;
1074;SDS011;526;51.392;12.448;2023-05-07T09:29:31;3.00;;;2.87;;
1074;SDS011;526;51.392;12.448;2023-05-07T09:32:03;3.77;;;3.10;;
1074;SDS011;526;51.392;12.448;2023-05-07T09:34:32;1.87;;;1.77;;
1074;SDS011;526;51.392;12.448;2023-05-07T09:37:04;3.23;;;2.83;;
1074;SDS011;526;51.392;12.448;2023-05-07T09:39:43;1.93;;;1.83;;
1074;SDS011;526;51.392;12.448;2023-05-07T09:42:11;3.77;;;3.20;;
1074;SDS011;526;51.392;12.448;2023-05-07T09:44:37;3.73;;;2.13;;
1074;SDS011;526;51.392;12.448;2023-05-07T09:47:07;2.47;;;2.27;;
1074;SDS011;526;51.392;12.448;2023-05-07T09:49:34;3.40;;;3.20;;
1074;SDS011;526;51.392;12.448;2023-05-07T09:52:01;2.37;;;1.93;;
1074;SDS011;526;51.392;12.448;2023-05-07T09:54:28;3.83;;;2.30;;
1074;SDS011;526;51.392;12.448;2023-05-07T09:56:54;3.67;;;2.47;;
1074;SDS011;526;51.392;12.448;2023-05-07T09:59:21;3.90;;;2.97;;
1074;SDS011;526;51.392;12.448;2023-05-07T10:01:47;3.47;;;1.67;;
1074;SDS011;526;51.392;12.448;2023-05-07T10:04:13;3.07;;;2.90;;
1074;SDS011;526;51.392;12.448;2023-05-07T10:06:39;1.87;;;1.83;;
1074;SDS011;526;51.392;12.448;2023-05-07T10:09:05;1.63;;;1.57;;
1074;SDS011;526;51.392;12.448;2023-05-07T10:11:34;4.60;;;2.87;;
1074;SDS011;526;51.392;12.448;2023-05-07T10:14:01;6.20;;;2.97;;
1074;SDS011;526;51.392;12.448;2023-05-07T10:16:36;1.90;;;1.80;;
1074;SDS011;526;51.392;12.448;2023-05-07T10:19:06;2.50;;;1.70;;
1074;SDS011;526;51.392;12.448;2023-05-07T10:21:35;4.40;;;2.30;;
1074;SDS011;526;51.392;12.448;2023-05-07T10:24:06;1.90;;;1.80;;
1074;SDS011;526;51.392;12.448;2023-05-07T10:26:38;2.27;;;2.03;;
1074;SDS011;526;51.392;12.448;2023-05-07T10:32:12;1.97;;;1.87;;
1074;SDS011;526;51.392;12.448;2023-05-07T10:34:48;3.80;;;3.20;;
1074;SDS011;526;51.392;12.448;2023-05-07T10:37:18;5.93;;;4.10;;
1074;SDS011;526;51.392;12.448;2023-05-07T10:39:44;1.97;;;1.87;;
1074;SDS011;526;51.392;12.448;2023-05-07T10:42:10;2.97;;;2.23;;
1074;SDS011;526;51.392;12.448;2023-05-07T10:44:36;4.60;;;2.73;;
1074;SDS011;526;51.392;12.448;2023-05-07T10:47:11;4.30;;;2.50;;
1074;SDS011;526;51.392;12.448;2023-05-07T10:54:39;2.90;;;2.50;;
1074;SDS011;526;51.392;12.448;2023-05-07T10:59:55;7.87;;;2.93;;
1074;SDS011;526;51.392;12.448;2023-05-07T11:02:21;2.30;;;2.13;;
1074;SDS011;526;51.392;12.448;2023-05-07T11:05:18;13.50;;;4.03;;
1074;SDS011;526;51.392;12.448;2023-05-07T11:07:43;8.47;;;3.27;;
1074;SDS011;526;51.392;12.448;2023-05-07T11:10:20;4.83;;;2.50;;
1074;SDS011;526;51.392;12.448;2023-05-07T11:12:48;4.50;;;2.93;;
1074;SDS011;526;51.392;12.448;2023-05-07T11:15:15;5.23;;;2.90;;
1074;SDS011;526;51.392;12.448;2023-05-07T11:18:02;3.33;;;2.20;;
1074;SDS011;526;51.392;12.448;2023-05-07T11:20:44;2.40;;;2.20;;
1074;SDS011;526;51.392;12.448;2023-05-07T11:26:02;1.60;;;1.57;;
1074;SDS011;526;51.392;12.448;2023-05-07T11:28:36;2.13;;;1.97;;
1074;SDS011;526;51.392;12.448;2023-05-07T11:31:06;2.43;;;2.23;;
1074;SDS011;526;51.392;12.448;2023-05-07T11:33:32;3.60;;;3.40;;
1074;SDS011;526;51.392;12.448;2023-05-07T11:35:59;8.33;;;4.27;;
1074;SDS011;526;51.392;12.448;2023-05-07T11:38:25;3.93;;;2.53;;
1074;SDS011;526;51.392;12.448;2023-05-07T11:40:53;18.67;;;3.10;;
1074;SDS011;526;51.392;12.448;2023-05-07T11:43:21;3.43;;;2.23;;
1074;SDS011;526;51.392;12.448;2023-05-07T11:45:47;2.67;;;1.80;;
1074;SDS011;526;51.392;12.448;2023-05-07T11:48:13;3.10;;;2.90;;
1074;SDS011;526;51.392;12.448;2023-05-07T11:53:19;4.23;;;2.47;;
1074;SDS011;526;51.392;12.448;2023-05-07T11:55:45;5.30;;;2.60;;
1074;SDS011;526;51.392;12.448;2023-05-07T11:58:12;11.03;;;4.90;;
1074;SDS011;526;51.392;12.448;2023-05-07T12:00:51;4.57;;;3.10;;
1074;SDS011;526;51.392;12.448;2023-05-07T12:03:18;2.77;;;2.13;;
1074;SDS011;526;51.392;12.448;2023-05-07T12:05:44;3.37;;;2.30;;
1074;SDS011;526;51.392;12.448;2023-05-07T12:08:13;2.70;;;2.23;;
1074;SDS011;526;51.392;12.448;2023-05-07T12:10:41;3.83;;;2.40;;
1074;SDS011;526;51.392;12.448;2023-05-07T12:13:23;2.50;;;2.30;;
1074;SDS011;526;51.392;12.448;2023-05-07T12:15:54;4.73;;;2.60;;
1074;SDS011;526;51.392;12.448;2023-05-07T12:18:22;2.97;;;2.47;;
1074;SDS011;526;51.392;12.448;2023-05-07T12:20:48;2.47;;;2.23;;
1074;SDS011;526;51.392;12.448;2023-05-07T12:23:15;2.67;;;2.57;;
1074;SDS011;526;51.392;12.448;2023-05-07T12:25:43;2.80;;;2.27;;
1074;SDS011;526;51.392;12.448;2023-05-07T12:28:15;7.20;;;2.97;;
1074;SDS011;526;51.392;12.448;2023-05-07T12:30:43;7.93;;;3.43;;
1074;SDS011;526;51.392;12.448;2023-05-07T12:33:09;2.30;;;2.10;;
1074;SDS011;526;51.392;12.448;2023-05-07T12:35:36;2.43;;;2.23;;
1074;SDS011;526;51.392;12.448;2023-05-07T12:38:07;5.90;;;2.57;;
1074;SDS011;526;51.392;12.448;2023-05-07T12:43:18;2.47;;;2.30;;
1074;SDS011;526;51.392;12.448;2023-05-07T12:45:46;4.13;;;2.97;;
1074;SDS011;526;51.392;12.448;2023-05-07T12:48:13;1.90;;;1.80;;
1074;SDS011;526;51.392;12.448;2023-05-07T12:50:41;6.40;;;2.77;;
1074;SDS011;526;51.392;12.448;2023-05-07T12:53:07;2.53;;;1.73;;
1074;SDS011;526;51.392;12.448;2023-05-07T12:55:46;2.43;;;2.23;;
1074;SDS011;526;51.392;12.448;2023-05-07T13:00:44;3.27;;;3.00;;
1074;SDS011;526;51.392;12.448;2023-05-07T13:03:16;1.77;;;1.67;;
1074;SDS011;526;51.392;12.448;2023-05-07T13:05:50;2.67;;;2.37;;
1074;SDS011;526;51.392;12.448;2023-05-07T13:10:56;2.03;;;1.60;;
1074;SDS011;526;51.392;12.448;2023-05-07T13:13:22;2.67;;;2.27;;
1074;SDS011;526;51.392;12.448;2023-05-07T13:15:48;2.03;;;1.90;;
1074;SDS011;526;51.392;12.448;2023-05-07T13:18:14;1.77;;;1.70;;
1074;SDS011;526;51.392;12.448;2023-05-07T13:20:39;3.67;;;1.73;;
1074;SDS011;526;51.392;12.448;2023-05-07T13:23:05;3.53;;;2.60;;
1074;SDS011;526;51.392;12.448;2023-05-07T13:25:31;4.93;;;2.27;;
1074;SDS011;526;51.392;12.448;2023-05-07T13:27:56;4.03;;;2.20;;
1074;SDS011;526;51.392;12.448;2023-05-07T13:30:22;3.23;;;2.40;;
1074;SDS011;526;51.392;12.448;2023-05-07T13:32:48;2.67;;;2.10;;
1074;SDS011;526;51.392;12.448;2023-05-07T13:35:14;2.00;;;1.90;;
1074;SDS011;526;51.392;12.448;2023-05-07T13:37:40;3.87;;;2.27;;
1074;SDS011;526;51.392;12.448;2023-05-07T13:40:05;1.90;;;1.80;;
1074;SDS011;526;51.392;12.448;2023-05-07T13:42:31;5.07;;;2.47;;
1074;SDS011;526;51.392;12.448;2023-05-07T13:44:57;1.80;;;1.50;;
1074;SDS011;526;51.392;12.448;2023-05-07T13:47:22;2.17;;;2.00;;
1074;SDS011;526;51.392;12.448;2023-05-07T13:49:48;3.67;;;2.37;;
1074;SDS011;526;51.392;12.448;2023-05-07T13:52:15;2.90;;;2.60;;
1074;SDS011;526;51.392;12.448;2023-05-07T13:54:40;1.73;;;1.53;;
1074;SDS011;526;51.392;12.448;2023-05-07T13:57:06;2.37;;;2.17;;
1074;SDS011;526;51.392;12.448;2023-05-07T13:59:31;1.93;;;1.77;;
1074;SDS011;526;51.392;12.448;2023-05-07T14:01:57;1.43;;;1.33;;
1074;SDS011;526;51.392;12.448;2023-05-07T14:04:23;1.20;;;1.10;;
1074;SDS011;526;51.392;12.448;2023-05-07T14:06:48;1.50;;;1.40;;
1074;SDS011;526;51.392;12.448;2023-05-07T14:09:14;1.83;;;1.30;;
1074;SDS011;526;51.392;12.448;2023-05-07T14:11:39;2.90;;;1.83;;
1074;SDS011;526;51.392;12.448;2023-05-07T14:14:05;5.03;;;1.30;;
1074;SDS011;526;51.392;12.448;2023-05-07T14:16:31;3.23;;;2.27;;
1074;SDS011;526;51.392;12.448;2023-05-07T14:18:56;4.00;;;2.10;;
1074;SDS011;526;51.392;12.448;2023-05-07T14:21:22;1.53;;;1.53;;
1074;SDS011;526;51.392;12.448;2023-05-07T14:23:47;1.60;;;1.30;;
1074;SDS011;526;51.392;12.448;2023-05-07T14:26:13;1.97;;;1.63;;
1074;SDS011;526;51.392;12.448;2023-05-07T14:28:39;4.90;;;2.00;;
1074;SDS011;526;51.392;12.448;2023-05-07T14:31:04;1.63;;;1.53;;
1074;SDS011;526;51.392;12.448;2023-05-07T14:33:31;1.40;;;1.10;;
1074;SDS011;526;51.392;12.448;2023-05-07T14:35:56;1.73;;;1.63;;
1074;SDS011;526;51.392;12.448;2023-05-07T14:38:22;2.60;;;1.67;;
1074;SDS011;526;51.392;12.448;2023-05-07T14:40:47;3.23;;;2.30;;
1074;SDS011;526;51.392;12.448;2023-05-07T14:43:13;6.93;;;1.63;;
1074;SDS011;526;51.392;12.448;2023-05-07T14:45:38;1.43;;;1.40;;
1074;SDS011;526;51.392;12.448;2023-05-07T14:48:04;1.07;;;0.97;;
1074;SDS011;526;51.392;12.448;2023-05-07T14:50:30;1.47;;;1.37;;
1074;SDS011;526;51.392;12.448;2023-05-07T14:52:55;2.07;;;1.60;;
1074;SDS011;526;51.392;12.448;2023-05-07T14:55:21;1.77;;;1.67;;
1074;SDS011;526;51.392;12.448;2023-05-07T14:57:47;2.20;;;2.03;;
1074;SDS011;526;51.392;12.448;2023-05-07T15:00:15;3.63;;;1.83;;
1074;SDS011;526;51.392;12.448;2023-05-07T15:02:49;3.33;;;2.67;;
1074;SDS011;526;51.392;12.448;2023-05-07T15:08:40;7.07;;;2.00;;
1074;SDS011;526;51.392;12.448;2023-05-07T15:11:08;8.57;;;2.80;;
1074;SDS011;526;51.392;12.448;2023-05-07T15:13:34;1.63;;;1.57;;
1074;SDS011;526;51.392;12.448;2023-05-07T15:15:59;1.40;;;1.33;;
1074;SDS011;526;51.392;12.448;2023-05-07T15:18:25;4.40;;;2.70;;
1074;SDS011;526;51.392;12.448;2023-05-07T15:20:51;1.70;;;1.60;;
1074;SDS011;526;51.392;12.448;2023-05-07T15:23:16;2.50;;;1.47;;
1074;SDS011;526;51.392;12.448;2023-05-07T15:25:42;1.27;;;1.20;;
1074;SDS011;526;51.392;12.448;2023-05-07T15:28:07;3.87;;;2.07;;
1074;SDS011;526;51.392;12.448;2023-05-07T15:30:33;1.70;;;1.63;;
1074;SDS011;526;51.392;12.448;2023-05-07T15:32:59;2.30;;;2.10;;
1074;SDS011;526;51.392;12.448;2023-05-07T15:35:25;2.27;;;2.10;;
1074;SDS011;526;51.392;12.448;2023-05-07T15:37:51;1.50;;;1.40;;
1074;SDS011;526;51.392;12.448;2023-05-07T15:40:20;1.57;;;1.30;;